sensor_id;sensor_type;location;lat;lon;timestamp;P1;durP1;ratioP1;P2;durP2;ratioP2
29934;SDS011;19905;53.370;-6.314;2022-07-30T00:01:23;1.70;;;1.00;;
29934;SDS011;19905;53.370;-6.314;2022-07-30T00:03:52;2.03;;;1.20;;
29934;SDS011;19905;53.370;-6.314;2022-07-30T00:06:20;2.45;;;1.30;;
29934;SDS011;19905;53.370;-6.314;2022-07-30T00:08:49;3.75;;;1.20;;
29934;SDS011;19905;53.370;-6.314;2022-07-30T00:11:18;1.13;;;0.90;;
29934;SDS011;19905;53.370;-6.314;2022-07-30T00:13:54;1.88;;;1.23;;
29934;SDS011;19905;53.370;-6.314;2022-07-30T00:16:24;2.00;;;1.30;;
29934;SDS011;19905;53.370;-6.314;2022-07-30T00:18:53;2.45;;;1.25;;
29934;SDS011;19905;53.370;-6.314;2022-07-30T00:21:22;1.30;;;1.00;;
29934;SDS011;19905;53.370;-6.314;2022-07-30T00:24:02;1.42;;;1.08;;
29934;SDS011;19905;53.370;-6.314;2022-07-30T00:26:32;1.10;;;1.00;;
29934;SDS011;19905;53.370;-6.314;2022-07-30T00:29:03;2.83;;;1.25;;
29934;SDS011;19905;53.370;-6.314;2022-07-30T00:31:41;1.00;;;0.90;;
29934;SDS011;19905;53.370;-6.314;2022-07-30T00:34:24;2.70;;;1.30;;
29934;SDS011;19905;53.370;-6.314;2022-07-30T00:36:52;2.05;;;1.15;;
29934;SDS011;19905;53.370;-6.314;2022-07-30T00:39:21;2.28;;;1.33;;
29934;SDS011;19905;53.370;-6.314;2022-07-30T00:41:54;1.75;;;1.10;;
29934;SDS011;19905;53.370;-6.314;2022-07-30T00:44:26;3.30;;;1.10;;
29934;SDS011;19905;53.370;-6.314;2022-07-30T00:46:57;1.85;;;1.10;;
29934;SDS011;19905;53.370;-6.314;2022-07-30T00:49:27;2.40;;;1.15;;
29934;SDS011;19905;53.370;-6.314;2022-07-30T00:51:56;1.75;;;0.90;;
29934;SDS011;19905;53.370;-6.314;2022-07-30T00:54:24;1.60;;;1.10;;
29934;SDS011;19905;53.370;-6.314;2022-07-30T00:56:53;1.70;;;1.10;;
29934;SDS011;19905;53.370;-6.314;2022-07-30T00:59:22;2.00;;;1.08;;
29934;SDS011;19905;53.370;-6.314;2022-07-30T01:01:54;2.03;;;1.10;;
29934;SDS011;19905;53.370;-6.314;2022-07-30T01:04:22;2.38;;;1.38;;
29934;SDS011;19905;53.370;-6.314;2022-07-30T01:06:51;2.65;;;1.10;;
29934;SDS011;19905;53.370;-6.314;2022-07-30T01:09:20;1.83;;;1.20;;
29934;SDS011;19905;53.370;-6.314;2022-07-30T01:11:52;2.10;;;1.35;;
29934;SDS011;19905;53.370;-6.314;2022-07-30T01:14:22;2.08;;;1.10;;
29934;SDS011;19905;53.370;-6.314;2022-07-30T01:16:54;2.30;;;1.20;;
29934;SDS011;19905;53.370;-6.314;2022-07-30T01:19:25;2.65;;;1.35;;
29934;SDS011;19905;53.370;-6.314;2022-07-30T01:22:22;3.25;;;1.30;;
29934;SDS011;19905;53.370;-6.314;2022-07-30T01:25:09;2.35;;;1.40;;
29934;SDS011;19905;53.370;-6.314;2022-07-30T01:27:46;1.92;;;1.45;;
29934;SDS011;19905;53.370;-6.314;2022-07-30T01:30:18;2.78;;;1.52;;
29934;SDS011;19905;53.370;-6.314;2022-07-30T01:32:50;3.15;;;1.67;;
29934;SDS011;19905;53.370;-6.314;2022-07-30T01:35:21;4.47;;;1.83;;
29934;SDS011;19905;53.370;-6.314;2022-07-30T01:37:52;3.00;;;1.80;;
29934;SDS011;19905;53.370;-6.314;2022-07-30T01:40:23;3.58;;;1.80;;
29934;SDS011;19905;53.370;-6.314;2022-07-30T01:42:55;3.25;;;1.50;;
29934;SDS011;19905;53.370;-6.314;2022-07-30T01:45:28;3.83;;;1.85;;
29934;SDS011;19905;53.370;-6.314;2022-07-30T01:48:10;3.03;;;1.90;;
29934;SDS011;19905;53.370;-6.314;2022-07-30T01:50:41;4.28;;;1.95;;
29934;SDS011;19905;53.370;-6.314;2022-07-30T01:53:13;3.58;;;2.30;;
29934;SDS011;19905;53.370;-6.314;2022-07-30T01:55:43;3.53;;;2.15;;
29934;SDS011;19905;53.370;-6.314;2022-07-30T01:58:17;3.38;;;2.17;;
29934;SDS011;19905;53.370;-6.314;2022-07-30T02:00:49;5.00;;;2.13;;
29934;SDS011;19905;53.370;-6.314;2022-07-30T02:03:18;4.38;;;2.17;;
29934;SDS011;19905;53.370;-6.314;2022-07-30T02:05:49;3.08;;;2.40;;
29934;SDS011;19905;53.370;-6.314;2022-07-30T02:08:23;2.95;;;2.33;;
29934;SDS011;19905;53.370;-6.314;2022-07-30T02:11:03;4.00;;;2.50;;
29934;SDS011;19905;53.370;-6.314;2022-07-30T02:13:37;5.15;;;2.60;;
29934;SDS011;19905;53.370;-6.314;2022-07-30T02:16:14;5.97;;;2.80;;
29934;SDS011;19905;53.370;-6.314;2022-07-30T02:18:47;3.90;;;2.60;;
29934;SDS011;19905;53.370;-6.314;2022-07-30T02:21:25;4.63;;;2.60;;
29934;SDS011;19905;53.370;-6.314;2022-07-30T02:24:02;4.47;;;2.55;;
29934;SDS011;19905;53.370;-6.314;2022-07-30T02:26:35;4.63;;;2.60;;
29934;SDS011;19905;53.370;-6.314;2022-07-30T02:29:06;3.67;;;2.58;;
29934;SDS011;19905;53.370;-6.314;2022-07-30T02:31:38;3.50;;;2.60;;
29934;SDS011;19905;53.370;-6.314;2022-07-30T02:34:09;4.13;;;2.55;;
29934;SDS011;19905;53.370;-6.314;2022-07-30T02:36:42;3.92;;;2.72;;
29934;SDS011;19905;53.370;-6.314;2022-07-30T02:39:13;4.82;;;2.50;;
29934;SDS011;19905;53.370;-6.314;2022-07-30T02:41:43;5.40;;;2.80;;
29934;SDS011;19905;53.370;-6.314;2022-07-30T02:44:17;4.25;;;2.80;;
29934;SDS011;19905;53.370;-6.314;2022-07-30T02:46:47;3.35;;;2.90;;
29934;SDS011;19905;53.370;-6.314;2022-07-30T02:49:18;4.10;;;2.60;;
29934;SDS011;19905;53.370;-6.314;2022-07-30T02:51:49;4.30;;;2.63;;
29934;SDS011;19905;53.370;-6.314;2022-07-30T02:54:19;4.50;;;3.05;;
29934;SDS011;19905;53.370;-6.314;2022-07-30T02:56:50;4.75;;;2.80;;
29934;SDS011;19905;53.370;-6.314;2022-07-30T02:59:22;4.93;;;2.90;;
29934;SDS011;19905;53.370;-6.314;2022-07-30T03:01:52;3.92;;;2.70;;
29934;SDS011;19905;53.370;-6.314;2022-07-30T03:04:22;5.10;;;2.70;;
29934;SDS011;19905;53.370;-6.314;2022-07-30T03:06:55;8.20;;;2.65;;
29934;SDS011;19905;53.370;-6.314;2022-07-30T03:09:31;6.43;;;3.00;;
29934;SDS011;19905;53.370;-6.314;2022-07-30T03:12:18;4.35;;;2.60;;
29934;SDS011;19905;53.370;-6.314;2022-07-30T03:14:50;7.32;;;2.88;;
29934;SDS011;19905;53.370;-6.314;2022-07-30T03:17:19;4.97;;;2.60;;
29934;SDS011;19905;53.370;-6.314;2022-07-30T03:19:50;4.18;;;2.90;;
29934;SDS011;19905;53.370;-6.314;2022-07-30T03:22:22;6.18;;;2.97;;
29934;SDS011;19905;53.370;-6.314;2022-07-30T03:24:58;4.38;;;3.10;;
29934;SDS011;19905;53.370;-6.314;2022-07-30T03:27:28;4.03;;;2.90;;
29934;SDS011;19905;53.370;-6.314;2022-07-30T03:30:00;3.58;;;2.80;;
29934;SDS011;19905;53.370;-6.314;2022-07-30T03:32:32;3.85;;;2.72;;
29934;SDS011;19905;53.370;-6.314;2022-07-30T03:35:04;4.13;;;2.78;;
29934;SDS011;19905;53.370;-6.314;2022-07-30T03:37:44;4.97;;;2.92;;
29934;SDS011;19905;53.370;-6.314;2022-07-30T03:40:15;5.78;;;2.83;;
29934;SDS011;19905;53.370;-6.314;2022-07-30T03:42:45;4.35;;;2.60;;
29934;SDS011;19905;53.370;-6.314;2022-07-30T03:45:17;6.40;;;2.90;;
29934;SDS011;19905;53.370;-6.314;2022-07-30T03:47:47;3.22;;;2.80;;
29934;SDS011;19905;53.370;-6.314;2022-07-30T03:50:16;5.07;;;3.08;;
29934;SDS011;19905;53.370;-6.314;2022-07-30T03:52:46;4.65;;;2.85;;
29934;SDS011;19905;53.370;-6.314;2022-07-30T03:55:15;5.90;;;2.63;;
29934;SDS011;19905;53.370;-6.314;2022-07-30T03:57:44;4.47;;;2.50;;
29934;SDS011;19905;53.370;-6.314;2022-07-30T04:00:14;3.17;;;2.30;;
29934;SDS011;19905;53.370;-6.314;2022-07-30T04:02:45;2.88;;;2.33;;
29934;SDS011;19905;53.370;-6.314;2022-07-30T04:05:14;4.05;;;2.80;;
29934;SDS011;19905;53.370;-6.314;2022-07-30T04:07:44;7.18;;;2.70;;
29934;SDS011;19905;53.370;-6.314;2022-07-30T04:10:14;4.68;;;2.70;;
29934;SDS011;19905;53.370;-6.314;2022-07-30T04:12:43;4.28;;;3.00;;
29934;SDS011;19905;53.370;-6.314;2022-07-30T04:15:12;4.32;;;3.47;;
29934;SDS011;19905;53.370;-6.314;2022-07-30T04:18:05;4.97;;;3.78;;
29934;SDS011;19905;53.370;-6.314;2022-07-30T04:20:39;4.72;;;3.67;;
29934;SDS011;19905;53.370;-6.314;2022-07-30T04:23:10;5.55;;;3.60;;
29934;SDS011;19905;53.370;-6.314;2022-07-30T04:25:40;6.15;;;3.65;;
29934;SDS011;19905;53.370;-6.314;2022-07-30T04:28:10;4.70;;;3.42;;
29934;SDS011;19905;53.370;-6.314;2022-07-30T04:30:39;5.00;;;3.30;;
29934;SDS011;19905;53.370;-6.314;2022-07-30T04:33:11;4.82;;;3.50;;
29934;SDS011;19905;53.370;-6.314;2022-07-30T04:35:40;3.63;;;3.17;;
29934;SDS011;19905;53.370;-6.314;2022-07-30T04:38:17;3.63;;;2.72;;
29934;SDS011;19905;53.370;-6.314;2022-07-30T04:40:46;4.00;;;3.00;;
29934;SDS011;19905;53.370;-6.314;2022-07-30T04:43:16;3.80;;;2.70;;
29934;SDS011;19905;53.370;-6.314;2022-07-30T04:45:44;3.00;;;2.50;;
29934;SDS011;19905;53.370;-6.314;2022-07-30T04:48:14;3.78;;;2.80;;
29934;SDS011;19905;53.370;-6.314;2022-07-30T04:50:44;4.10;;;3.00;;
29934;SDS011;19905;53.370;-6.314;2022-07-30T04:53:16;4.97;;;3.28;;
29934;SDS011;19905;53.370;-6.314;2022-07-30T04:55:45;6.95;;;3.88;;
29934;SDS011;19905;53.370;-6.314;2022-07-30T04:58:19;3.65;;;3.28;;
29934;SDS011;19905;53.370;-6.314;2022-07-30T05:00:49;4.93;;;3.80;;
29934;SDS011;19905;53.370;-6.314;2022-07-30T05:03:20;4.60;;;3.72;;
29934;SDS011;19905;53.370;-6.314;2022-07-30T05:05:51;4.40;;;3.60;;
29934;SDS011;19905;53.370;-6.314;2022-07-30T05:08:23;7.13;;;3.85;;
29934;SDS011;19905;53.370;-6.314;2022-07-30T05:10:52;4.55;;;3.75;;
29934;SDS011;19905;53.370;-6.314;2022-07-30T05:13:21;4.68;;;3.55;;
29934;SDS011;19905;53.370;-6.314;2022-07-30T05:16:00;6.15;;;4.18;;
29934;SDS011;19905;53.370;-6.314;2022-07-30T05:18:30;5.53;;;3.80;;
29934;SDS011;19905;53.370;-6.314;2022-07-30T05:20:58;5.30;;;3.60;;
29934;SDS011;19905;53.370;-6.314;2022-07-30T05:23:27;7.00;;;3.83;;
29934;SDS011;19905;53.370;-6.314;2022-07-30T05:25:56;6.13;;;3.72;;
29934;SDS011;19905;53.370;-6.314;2022-07-30T05:28:25;6.47;;;3.65;;
29934;SDS011;19905;53.370;-6.314;2022-07-30T05:30:53;6.03;;;3.85;;
29934;SDS011;19905;53.370;-6.314;2022-07-30T05:33:23;7.43;;;4.10;;
29934;SDS011;19905;53.370;-6.314;2022-07-30T05:36:09;9.48;;;4.43;;
29934;SDS011;19905;53.370;-6.314;2022-07-30T05:38:37;6.97;;;4.00;;
29934;SDS011;19905;53.370;-6.314;2022-07-30T05:41:06;5.75;;;4.10;;
29934;SDS011;19905;53.370;-6.314;2022-07-30T05:43:55;6.28;;;3.83;;
29934;SDS011;19905;53.370;-6.314;2022-07-30T05:46:24;6.25;;;3.97;;
29934;SDS011;19905;53.370;-6.314;2022-07-30T05:48:53;6.03;;;3.78;;
29934;SDS011;19905;53.370;-6.314;2022-07-30T05:51:23;6.53;;;3.75;;
29934;SDS011;19905;53.370;-6.314;2022-07-30T05:53:52;5.18;;;3.72;;
29934;SDS011;19905;53.370;-6.314;2022-07-30T05:56:20;6.10;;;3.85;;
29934;SDS011;19905;53.370;-6.314;2022-07-30T05:58:48;6.55;;;3.83;;
29934;SDS011;19905;53.370;-6.314;2022-07-30T06:01:17;8.02;;;3.97;;
29934;SDS011;19905;53.370;-6.314;2022-07-30T06:03:45;6.45;;;3.53;;
29934;SDS011;19905;53.370;-6.314;2022-07-30T06:06:14;7.28;;;4.05;;
29934;SDS011;19905;53.370;-6.314;2022-07-30T06:08:50;6.70;;;3.30;;
29934;SDS011;19905;53.370;-6.314;2022-07-30T06:11:18;6.85;;;3.60;;
29934;SDS011;19905;53.370;-6.314;2022-07-30T06:13:48;5.93;;;3.25;;
29934;SDS011;19905;53.370;-6.314;2022-07-30T06:16:16;5.00;;;3.53;;
29934;SDS011;19905;53.370;-6.314;2022-07-30T06:18:45;7.57;;;3.30;;
29934;SDS011;19905;53.370;-6.314;2022-07-30T06:21:14;5.95;;;3.10;;
29934;SDS011;19905;53.370;-6.314;2022-07-30T06:23:42;5.53;;;2.90;;
29934;SDS011;19905;53.370;-6.314;2022-07-30T06:26:12;6.25;;;3.00;;
29934;SDS011;19905;53.370;-6.314;2022-07-30T06:28:41;5.18;;;3.03;;
29934;SDS011;19905;53.370;-6.314;2022-07-30T06:31:10;5.50;;;2.60;;
29934;SDS011;19905;53.370;-6.314;2022-07-30T06:33:38;5.55;;;2.45;;
29934;SDS011;19905;53.370;-6.314;2022-07-30T06:36:07;4.45;;;2.78;;
29934;SDS011;19905;53.370;-6.314;2022-07-30T06:38:39;4.18;;;2.60;;
29934;SDS011;19905;53.370;-6.314;2022-07-30T06:41:08;4.53;;;2.50;;
29934;SDS011;19905;53.370;-6.314;2022-07-30T06:43:38;5.20;;;2.70;;
29934;SDS011;19905;53.370;-6.314;2022-07-30T06:46:06;9.80;;;2.65;;
29934;SDS011;19905;53.370;-6.314;2022-07-30T06:48:35;7.70;;;3.15;;
29934;SDS011;19905;53.370;-6.314;2022-07-30T06:51:04;3.22;;;2.55;;
29934;SDS011;19905;53.370;-6.314;2022-07-30T06:53:34;6.20;;;2.70;;
29934;SDS011;19905;53.370;-6.314;2022-07-30T06:56:08;6.05;;;2.78;;
29934;SDS011;19905;53.370;-6.314;2022-07-30T06:58:39;4.57;;;2.42;;
29934;SDS011;19905;53.370;-6.314;2022-07-30T07:01:09;6.32;;;2.70;;
29934;SDS011;19905;53.370;-6.314;2022-07-30T07:03:38;5.30;;;2.97;;
29934;SDS011;19905;53.370;-6.314;2022-07-30T07:06:09;5.22;;;2.65;;
29934;SDS011;19905;53.370;-6.314;2022-07-30T07:08:37;5.57;;;2.60;;
29934;SDS011;19905;53.370;-6.314;2022-07-30T07:11:06;4.30;;;2.35;;
29934;SDS011;19905;53.370;-6.314;2022-07-30T07:13:36;3.08;;;2.50;;
29934;SDS011;19905;53.370;-6.314;2022-07-30T07:16:07;2.97;;;2.03;;
29934;SDS011;19905;53.370;-6.314;2022-07-30T07:18:37;6.20;;;2.50;;
29934;SDS011;19905;53.370;-6.314;2022-07-30T07:21:05;5.82;;;2.00;;
29934;SDS011;19905;53.370;-6.314;2022-07-30T07:23:34;3.10;;;1.88;;
29934;SDS011;19905;53.370;-6.314;2022-07-30T07:26:08;5.00;;;2.03;;
29934;SDS011;19905;53.370;-6.314;2022-07-30T07:28:39;2.20;;;1.63;;
29934;SDS011;19905;53.370;-6.314;2022-07-30T07:31:09;3.17;;;1.98;;
29934;SDS011;19905;53.370;-6.314;2022-07-30T07:33:58;3.38;;;2.17;;
29934;SDS011;19905;53.370;-6.314;2022-07-30T07:36:26;3.55;;;2.10;;
29934;SDS011;19905;53.370;-6.314;2022-07-30T07:38:56;5.50;;;1.90;;
29934;SDS011;19905;53.370;-6.314;2022-07-30T07:41:25;5.30;;;2.05;;
29934;SDS011;19905;53.370;-6.314;2022-07-30T07:44:14;3.85;;;1.92;;
29934;SDS011;19905;53.370;-6.314;2022-07-30T07:46:44;2.80;;;1.95;;
29934;SDS011;19905;53.370;-6.314;2022-07-30T07:49:15;5.40;;;2.58;;
29934;SDS011;19905;53.370;-6.314;2022-07-30T07:51:51;7.50;;;2.30;;
29934;SDS011;19905;53.370;-6.314;2022-07-30T07:54:20;3.53;;;2.22;;
29934;SDS011;19905;53.370;-6.314;2022-07-30T07:56:49;3.60;;;2.08;;
29934;SDS011;19905;53.370;-6.314;2022-07-30T07:59:18;5.15;;;2.72;;
29934;SDS011;19905;53.370;-6.314;2022-07-30T08:01:50;5.40;;;2.30;;
29934;SDS011;19905;53.370;-6.314;2022-07-30T08:04:19;4.70;;;2.45;;
29934;SDS011;19905;53.370;-6.314;2022-07-30T08:06:47;4.03;;;2.50;;
29934;SDS011;19905;53.370;-6.314;2022-07-30T08:09:16;5.55;;;2.35;;
29934;SDS011;19905;53.370;-6.314;2022-07-30T08:11:44;5.10;;;2.45;;
29934;SDS011;19905;53.370;-6.314;2022-07-30T08:14:13;5.88;;;2.33;;
29934;SDS011;19905;53.370;-6.314;2022-07-30T08:16:42;3.08;;;2.10;;
29934;SDS011;19905;53.370;-6.314;2022-07-30T08:19:13;5.28;;;2.45;;
29934;SDS011;19905;53.370;-6.314;2022-07-30T08:21:41;4.07;;;2.30;;
29934;SDS011;19905;53.370;-6.314;2022-07-30T08:24:11;4.28;;;2.20;;
29934;SDS011;19905;53.370;-6.314;2022-07-30T08:26:39;3.33;;;2.33;;
29934;SDS011;19905;53.370;-6.314;2022-07-30T08:29:08;5.60;;;2.30;;
29934;SDS011;19905;53.370;-6.314;2022-07-30T08:31:42;4.10;;;2.42;;
29934;SDS011;19905;53.370;-6.314;2022-07-30T08:34:13;5.20;;;2.40;;
29934;SDS011;19905;53.370;-6.314;2022-07-30T08:36:44;4.00;;;2.58;;
29934;SDS011;19905;53.370;-6.314;2022-07-30T08:39:15;4.63;;;2.67;;
29934;SDS011;19905;53.370;-6.314;2022-07-30T08:41:44;6.85;;;2.70;;
29934;SDS011;19905;53.370;-6.314;2022-07-30T08:44:13;6.05;;;3.00;;
29934;SDS011;19905;53.370;-6.314;2022-07-30T08:46:45;4.72;;;2.83;;
29934;SDS011;19905;53.370;-6.314;2022-07-30T08:49:15;4.18;;;2.78;;
29934;SDS011;19905;53.370;-6.314;2022-07-30T08:51:46;3.92;;;2.80;;
29934;SDS011;19905;53.370;-6.314;2022-07-30T08:54:16;4.30;;;3.05;;
29934;SDS011;19905;53.370;-6.314;2022-07-30T08:56:46;6.28;;;2.88;;
29934;SDS011;19905;53.370;-6.314;2022-07-30T08:59:16;4.80;;;3.15;;
29934;SDS011;19905;53.370;-6.314;2022-07-30T09:01:45;4.30;;;2.97;;
29934;SDS011;19905;53.370;-6.314;2022-07-30T09:04:13;6.57;;;3.13;;
29934;SDS011;19905;53.370;-6.314;2022-07-30T09:06:43;4.40;;;2.92;;
29934;SDS011;19905;53.370;-6.314;2022-07-30T09:09:13;6.00;;;3.20;;
29934;SDS011;19905;53.370;-6.314;2022-07-30T09:11:42;5.75;;;3.05;;
29934;SDS011;19905;53.370;-6.314;2022-07-30T09:14:12;3.45;;;2.92;;
29934;SDS011;19905;53.370;-6.314;2022-07-30T09:16:41;4.00;;;2.85;;
29934;SDS011;19905;53.370;-6.314;2022-07-30T09:19:13;3.95;;;2.75;;
29934;SDS011;19905;53.370;-6.314;2022-07-30T09:21:54;5.60;;;3.17;;
29934;SDS011;19905;53.370;-6.314;2022-07-30T09:24:24;4.68;;;2.88;;
29934;SDS011;19905;53.370;-6.314;2022-07-30T09:26:54;4.53;;;3.00;;
29934;SDS011;19905;53.370;-6.314;2022-07-30T09:29:27;3.85;;;2.80;;
29934;SDS011;19905;53.370;-6.314;2022-07-30T09:31:58;3.95;;;3.00;;
29934;SDS011;19905;53.370;-6.314;2022-07-30T09:34:29;5.97;;;2.97;;
29934;SDS011;19905;53.370;-6.314;2022-07-30T09:37:01;4.78;;;2.85;;
29934;SDS011;19905;53.370;-6.314;2022-07-30T09:39:32;4.90;;;3.28;;
29934;SDS011;19905;53.370;-6.314;2022-07-30T09:42:01;4.95;;;3.30;;
29934;SDS011;19905;53.370;-6.314;2022-07-30T09:44:31;5.25;;;3.20;;
29934;SDS011;19905;53.370;-6.314;2022-07-30T09:47:00;4.90;;;3.20;;
29934;SDS011;19905;53.370;-6.314;2022-07-30T09:49:29;4.47;;;2.90;;
29934;SDS011;19905;53.370;-6.314;2022-07-30T09:51:59;5.47;;;2.95;;
29934;SDS011;19905;53.370;-6.314;2022-07-30T09:54:44;5.95;;;3.38;;
29934;SDS011;19905;53.370;-6.314;2022-07-30T09:57:18;3.60;;;3.17;;
29934;SDS011;19905;53.370;-6.314;2022-07-30T10:00:16;7.50;;;3.25;;
29934;SDS011;19905;53.370;-6.314;2022-07-30T10:02:49;6.55;;;3.75;;
29934;SDS011;19905;53.370;-6.314;2022-07-30T10:05:18;6.55;;;3.58;;
29934;SDS011;19905;53.370;-6.314;2022-07-30T10:07:52;6.53;;;3.78;;
29934;SDS011;19905;53.370;-6.314;2022-07-30T10:10:23;4.88;;;3.67;;
29934;SDS011;19905;53.370;-6.314;2022-07-30T10:12:56;6.82;;;4.07;;
29934;SDS011;19905;53.370;-6.314;2022-07-30T10:15:31;7.90;;;4.25;;
29934;SDS011;19905;53.370;-6.314;2022-07-30T10:18:01;6.13;;;4.15;;
29934;SDS011;19905;53.370;-6.314;2022-07-30T10:20:32;6.10;;;4.00;;
29934;SDS011;19905;53.370;-6.314;2022-07-30T10:23:02;6.40;;;4.30;;
29934;SDS011;19905;53.370;-6.314;2022-07-30T10:25:35;7.88;;;4.32;;
29934;SDS011;19905;53.370;-6.314;2022-07-30T10:28:26;7.63;;;4.65;;
29934;SDS011;19905;53.370;-6.314;2022-07-30T10:31:03;7.68;;;4.25;;
29934;SDS011;19905;53.370;-6.314;2022-07-30T10:33:52;5.38;;;4.05;;
29934;SDS011;19905;53.370;-6.314;2022-07-30T10:36:21;7.18;;;4.30;;
29934;SDS011;19905;53.370;-6.314;2022-07-30T10:38:52;6.82;;;4.63;;
29934;SDS011;19905;53.370;-6.314;2022-07-30T10:41:28;8.55;;;4.22;;
29934;SDS011;19905;53.370;-6.314;2022-07-30T10:44:23;6.18;;;4.10;;
29934;SDS011;19905;53.370;-6.314;2022-07-30T10:47:07;6.65;;;4.60;;
29934;SDS011;19905;53.370;-6.314;2022-07-30T10:49:42;8.05;;;4.53;;
29934;SDS011;19905;53.370;-6.314;2022-07-30T10:55:41;8.38;;;4.57;;
29934;SDS011;19905;53.370;-6.314;2022-07-30T10:58:11;6.38;;;4.50;;
29934;SDS011;19905;53.370;-6.314;2022-07-30T11:01:01;7.60;;;4.40;;
29934;SDS011;19905;53.370;-6.314;2022-07-30T11:07:01;7.50;;;5.10;;
29934;SDS011;19905;53.370;-6.314;2022-07-30T11:13:09;7.63;;;4.30;;
29934;SDS011;19905;53.370;-6.314;2022-07-30T11:15:54;6.88;;;4.75;;
29934;SDS011;19905;53.370;-6.314;2022-07-30T11:18:32;6.90;;;4.85;;
29934;SDS011;19905;53.370;-6.314;2022-07-30T11:27:52;7.63;;;4.65;;
29934;SDS011;19905;53.370;-6.314;2022-07-30T11:30:32;6.50;;;5.05;;
29934;SDS011;19905;53.370;-6.314;2022-07-30T11:44:57;7.47;;;4.68;;
29934;SDS011;19905;53.370;-6.314;2022-07-30T11:47:49;7.35;;;4.07;;
29934;SDS011;19905;53.370;-6.314;2022-07-30T11:56:02;6.85;;;4.80;;
29934;SDS011;19905;53.370;-6.314;2022-07-30T12:01:53;4.65;;;3.95;;
29934;SDS011;19905;53.370;-6.314;2022-07-30T12:04:22;6.82;;;4.43;;
29934;SDS011;19905;53.370;-6.314;2022-07-30T12:06:53;5.72;;;4.10;;
29934;SDS011;19905;53.370;-6.314;2022-07-30T12:09:22;6.03;;;4.35;;
29934;SDS011;19905;53.370;-6.314;2022-07-30T12:11:57;6.78;;;4.30;;
29934;SDS011;19905;53.370;-6.314;2022-07-30T12:14:35;7.13;;;4.15;;
29934;SDS011;19905;53.370;-6.314;2022-07-30T12:17:06;5.75;;;3.40;;
29934;SDS011;19905;53.370;-6.314;2022-07-30T12:30:30;5.72;;;3.60;;
29934;SDS011;19905;53.370;-6.314;2022-07-30T13:06:19;4.93;;;3.50;;
29934;SDS011;19905;53.370;-6.314;2022-07-30T13:19:41;3.70;;;3.13;;
29934;SDS011;19905;53.370;-6.314;2022-07-30T13:20:06;3.60;;;2.75;;
29934;SDS011;19905;53.370;-6.314;2022-07-30T13:33:44;2.28;;;1.90;;
29934;SDS011;19905;53.370;-6.314;2022-07-30T13:40:07;2.53;;;2.03;;
29934;SDS011;19905;53.370;-6.314;2022-07-30T13:43:14;3.70;;;2.17;;
29934;SDS011;19905;53.370;-6.314;2022-07-30T13:52:44;2.15;;;1.73;;
29934;SDS011;19905;53.370;-6.314;2022-07-30T13:55:40;2.38;;;2.10;;
29934;SDS011;19905;53.370;-6.314;2022-07-30T13:58:11;2.25;;;1.83;;
29934;SDS011;19905;53.370;-6.314;2022-07-30T14:00:51;3.00;;;1.67;;
29934;SDS011;19905;53.370;-6.314;2022-07-30T14:03:37;2.28;;;1.80;;
29934;SDS011;19905;53.370;-6.314;2022-07-30T14:06:14;2.97;;;1.75;;
29934;SDS011;19905;53.370;-6.314;2022-07-30T14:08:54;2.42;;;1.63;;
29934;SDS011;19905;53.370;-6.314;2022-07-30T14:11:23;2.42;;;1.80;;
29934;SDS011;19905;53.370;-6.314;2022-07-30T14:13:52;3.60;;;1.80;;
29934;SDS011;19905;53.370;-6.314;2022-07-30T14:16:20;3.05;;;1.77;;
29934;SDS011;19905;53.370;-6.314;2022-07-30T14:19:10;2.20;;;1.95;;
29934;SDS011;19905;53.370;-6.314;2022-07-30T14:21:50;4.25;;;2.33;;
29934;SDS011;19905;53.370;-6.314;2022-07-30T14:24:29;2.40;;;2.10;;
29934;SDS011;19905;53.370;-6.314;2022-07-30T14:26:57;2.78;;;2.17;;
29934;SDS011;19905;53.370;-6.314;2022-07-30T14:29:27;3.83;;;2.20;;
29934;SDS011;19905;53.370;-6.314;2022-07-30T14:31:56;2.95;;;2.20;;
29934;SDS011;19905;53.370;-6.314;2022-07-30T14:34:25;3.10;;;2.20;;
29934;SDS011;19905;53.370;-6.314;2022-07-30T14:36:53;2.63;;;2.20;;
29934;SDS011;19905;53.370;-6.314;2022-07-30T14:39:22;3.00;;;2.10;;
29934;SDS011;19905;53.370;-6.314;2022-07-30T14:41:55;3.60;;;2.50;;
29934;SDS011;19905;53.370;-6.314;2022-07-30T14:44:25;2.70;;;2.40;;
29934;SDS011;19905;53.370;-6.314;2022-07-30T14:46:55;3.05;;;2.75;;
29934;SDS011;19905;53.370;-6.314;2022-07-30T14:49:23;2.78;;;2.47;;
29934;SDS011;19905;53.370;-6.314;2022-07-30T14:51:52;3.33;;;2.65;;
29934;SDS011;19905;53.370;-6.314;2022-07-30T14:54:22;5.40;;;2.47;;
29934;SDS011;19905;53.370;-6.314;2022-07-30T14:56:55;2.35;;;2.10;;
29934;SDS011;19905;53.370;-6.314;2022-07-30T14:59:24;2.83;;;1.98;;
29934;SDS011;19905;53.370;-6.314;2022-07-30T15:01:53;2.38;;;2.08;;
29934;SDS011;19905;53.370;-6.314;2022-07-30T15:04:23;3.28;;;2.17;;
29934;SDS011;19905;53.370;-6.314;2022-07-30T15:06:52;3.45;;;2.00;;
29934;SDS011;19905;53.370;-6.314;2022-07-30T15:09:21;4.60;;;2.38;;
29934;SDS011;19905;53.370;-6.314;2022-07-30T15:11:49;2.20;;;2.00;;
29934;SDS011;19905;53.370;-6.314;2022-07-30T15:14:37;5.43;;;2.30;;
29934;SDS011;19905;53.370;-6.314;2022-07-30T15:17:09;2.63;;;1.98;;
29934;SDS011;19905;53.370;-6.314;2022-07-30T15:19:37;3.03;;;1.83;;
29934;SDS011;19905;53.370;-6.314;2022-07-30T15:22:16;2.35;;;2.00;;
29934;SDS011;19905;53.370;-6.314;2022-07-30T15:24:46;2.97;;;2.40;;
29934;SDS011;19905;53.370;-6.314;2022-07-30T15:27:15;5.78;;;2.15;;
29934;SDS011;19905;53.370;-6.314;2022-07-30T15:29:45;3.45;;;2.38;;
29934;SDS011;19905;53.370;-6.314;2022-07-30T15:32:14;3.13;;;2.10;;
29934;SDS011;19905;53.370;-6.314;2022-07-30T15:34:43;2.60;;;2.20;;
29934;SDS011;19905;53.370;-6.314;2022-07-30T15:37:26;4.75;;;2.40;;
29934;SDS011;19905;53.370;-6.314;2022-07-30T15:39:54;3.80;;;2.40;;
29934;SDS011;19905;53.370;-6.314;2022-07-30T15:42:23;2.83;;;2.20;;
29934;SDS011;19905;53.370;-6.314;2022-07-30T15:44:55;3.35;;;2.40;;
29934;SDS011;19905;53.370;-6.314;2022-07-30T15:47:45;3.92;;;2.70;;
29934;SDS011;19905;53.370;-6.314;2022-07-30T16:04:32;3.67;;;2.90;;
29934;SDS011;19905;53.370;-6.314;2022-07-30T16:07:03;4.32;;;3.78;;
29934;SDS011;19905;53.370;-6.314;2022-07-30T16:09:34;7.40;;;4.15;;
29934;SDS011;19905;53.370;-6.314;2022-07-30T16:12:05;4.53;;;3.75;;
29934;SDS011;19905;53.370;-6.314;2022-07-30T16:14:42;3.85;;;3.45;;
29934;SDS011;19905;53.370;-6.314;2022-07-30T16:17:25;5.10;;;3.70;;
29934;SDS011;19905;53.370;-6.314;2022-07-30T16:20:12;6.38;;;3.83;;
29934;SDS011;19905;53.370;-6.314;2022-07-30T16:22:53;4.78;;;3.47;;
29934;SDS011;19905;53.370;-6.314;2022-07-30T16:25:22;6.10;;;4.55;;
29934;SDS011;19905;53.370;-6.314;2022-07-30T16:30:26;5.45;;;3.92;;
29934;SDS011;19905;53.370;-6.314;2022-07-30T16:33:01;5.13;;;4.00;;
29934;SDS011;19905;53.370;-6.314;2022-07-30T16:35:33;6.32;;;3.80;;
29934;SDS011;19905;53.370;-6.314;2022-07-30T16:38:16;4.72;;;4.10;;
29934;SDS011;19905;53.370;-6.314;2022-07-30T16:40:59;3.83;;;3.40;;
29934;SDS011;19905;53.370;-6.314;2022-07-30T16:43:33;4.85;;;3.60;;
29934;SDS011;19905;53.370;-6.314;2022-07-30T16:46:14;4.07;;;3.10;;
29934;SDS011;19905;53.370;-6.314;2022-07-30T16:48:46;5.90;;;3.60;;
29934;SDS011;19905;53.370;-6.314;2022-07-30T16:51:18;4.63;;;3.70;;
29934;SDS011;19905;53.370;-6.314;2022-07-30T16:54:00;5.60;;;3.90;;
29934;SDS011;19905;53.370;-6.314;2022-07-30T16:56:30;6.05;;;3.95;;
29934;SDS011;19905;53.370;-6.314;2022-07-30T16:58:59;5.82;;;4.28;;
29934;SDS011;19905;53.370;-6.314;2022-07-30T17:01:29;5.53;;;3.97;;
29934;SDS011;19905;53.370;-6.314;2022-07-30T17:03:59;5.80;;;4.35;;
29934;SDS011;19905;53.370;-6.314;2022-07-30T17:06:32;6.35;;;4.32;;
29934;SDS011;19905;53.370;-6.314;2022-07-30T17:09:06;7.85;;;4.85;;
29934;SDS011;19905;53.370;-6.314;2022-07-30T17:11:41;5.97;;;3.97;;
29934;SDS011;19905;53.370;-6.314;2022-07-30T17:17:24;8.40;;;3.90;;